Carl, Iowa
Current Conditions -  °F | °C
As of 2:15 AM on Tuesday 27 Jan 2015 (Local Time) from KCSQ Reporting Station
Clear Clear  
Wind Chill: 27°   Ceiling: Unl
Heat Index: 34°   Visibility: 10mi
Dew Point: 32°   Wind: 8mph
Humidity: 93%   Direction: 330°NNW
Pressure: 30.05"   Gusts: NA
Location:  41.0285°N, 94.7568°W
Report Text: KCSQ 270815Z AUTO 33007KT 10SM CLR 01/M00 A3005 RMK AO2
Loading
Personal Weather Stations






























Interactive Weather Map New forecast layout! Learn more

10-Day Weather Forecast

Advertisements
Track Severe Weather on mobile